createdAt,value
2023-05-10T00:00:55.876Z,97.0034
2023-05-10T00:01:56.873Z,96.9145
2023-05-10T00:02:58.366Z,96.6216
2023-05-10T00:05:59.952Z,96.5598
2023-05-10T00:12:05.393Z,97.0907
2023-05-10T00:13:06.604Z,96.7319
2023-05-10T00:14:07.046Z,96.8500
2023-05-10T00:15:08.390Z,96.8286
2023-05-10T00:16:08.793Z,96.4942
2023-05-10T00:17:08.826Z,96.6850
2023-05-10T00:18:09.512Z,96.7392
2023-05-10T00:19:09.701Z,96.8963
2023-05-10T00:20:10.126Z,96.7903
2023-05-10T00:21:10.334Z,96.8589
2023-05-10T00:22:11.549Z,96.9294
2023-05-10T00:23:12.935Z,96.9416
2023-05-10T00:24:13.385Z,96.9713
2023-05-10T00:25:13.331Z,97.0719
2023-05-10T00:26:13.292Z,97.1863
2023-05-10T00:27:14.299Z,97.0687
2023-05-10T00:28:15.738Z,96.9272
2023-05-10T00:30:16.547Z,96.8701
2023-05-10T00:31:16.726Z,97.0216
2023-05-10T00:32:17.604Z,97.1749
2023-05-10T00:33:17.881Z,96.8033
2023-05-10T00:34:19.132Z,96.8277
2023-05-10T00:35:20.241Z,96.4876
2023-05-10T00:36:20.841Z,96.1035
2023-05-10T00:37:21.119Z,96.4063
2023-05-10T00:38:21.934Z,96.6593
2023-05-10T00:39:21.989Z,96.7662
2023-05-10T00:40:23.338Z,96.9188
2023-05-10T00:41:23.812Z,97.1780
2023-05-10T00:42:24.452Z,97.2239
2023-05-10T00:43:24.805Z,97.3955
2023-05-10T00:44:25.697Z,97.4951
2023-05-10T00:45:26.177Z,97.5940
2023-05-10T00:46:26.483Z,97.6028
2023-05-10T00:51:30.059Z,97.4946
2023-05-10T00:52:31.148Z,97.4448
2023-05-10T00:53:32.574Z,97.4933
2023-05-10T00:54:32.446Z,97.4324
2023-05-10T00:55:33.659Z,97.3531
2023-05-10T00:56:34.886Z,97.0959
2023-05-10T00:57:34.909Z,97.0908
2023-05-10T00:58:36.146Z,97.0205
2023-05-10T00:59:37.417Z,96.9657
2023-05-10T01:00:37.390Z,97.0823
2023-05-10T01:01:38.881Z,97.0997
2023-05-10T01:02:39.100Z,97.0805
2023-05-10T01:03:40.020Z,97.0055
2023-05-10T01:04:40.140Z,96.9080
2023-05-10T01:05:40.305Z,96.9926
2023-05-10T01:06:41.626Z,97.0765
2023-05-10T01:07:41.950Z,96.9142
2023-05-10T01:08:43.307Z,96.6901
2023-05-10T01:09:44.788Z,96.7078
2023-05-10T01:10:46.087Z,96.6746
2023-05-10T01:11:48.172Z,96.7354
2023-05-10T01:12:48.861Z,96.9035
2023-05-10T01:13:49.288Z,97.0617
2023-05-10T01:14:49.547Z,97.1836
2023-05-10T01:15:51.248Z,97.1197
2023-05-10T01:16:51.527Z,97.0063
2023-05-10T01:17:51.795Z,96.9471
2023-05-10T01:18:51.842Z,96.7670
2023-05-10T01:19:52.069Z,96.7890
2023-05-10T01:20:52.572Z,96.8699
2023-05-10T01:21:53.720Z,96.8623
2023-05-10T01:22:55.214Z,97.0615
2023-05-10T01:23:56.205Z,96.9776
2023-05-10T01:24:57.578Z,96.7109
2023-05-10T01:25:57.631Z,96.5291
2023-05-10T01:26:59.025Z,96.5743
2023-05-10T01:28:00.333Z,96.5253
2023-05-10T01:29:02.024Z,96.5875
2023-05-10T01:30:14.840Z,96.7022
2023-05-10T01:31:03.190Z,96.3732
2023-05-10T01:32:03.498Z,96.3537
2023-05-10T01:33:04.942Z,96.5242
2023-05-10T01:34:05.198Z,96.6764
2023-05-10T01:35:05.299Z,96.6868
2023-05-10T01:36:06.530Z,96.6995
2023-05-10T01:37:07.310Z,96.5270
2023-05-10T01:38:07.726Z,96.5268
2023-05-10T01:39:07.974Z,96.6833
2023-05-10T01:40:08.049Z,96.7075
2023-05-10T01:41:08.785Z,96.6954
2023-05-10T01:42:09.376Z,96.4468
2023-05-10T01:43:09.752Z,96.2694
2023-05-10T01:44:10.164Z,96.3291
2023-05-10T01:45:10.801Z,96.4388
2023-05-10T01:46:11.022Z,96.4122
2023-05-10T01:47:11.803Z,96.1553
2023-05-10T01:48:12.379Z,96.0386
2023-05-10T01:49:13.112Z,96.0605
2023-05-10T01:50:13.433Z,96.3219
2023-05-10T01:51:14.157Z,96.4622
2023-05-10T01:52:15.657Z,96.4729
2023-05-10T01:53:16.245Z,96.6159
2023-05-10T01:54:16.449Z,96.7356
2023-05-10T01:55:16.828Z,96.6440
2023-05-10T01:56:17.202Z,96.5953
2023-05-10T01:57:17.491Z,96.7382
2023-05-10T01:58:17.460Z,97.0085
2023-05-10T01:59:17.671Z,97.0209
2023-05-10T02:00:18.084Z,97.0156
2023-05-10T02:01:19.166Z,96.8037
2023-05-10T02:02:19.452Z,96.7937
2023-05-10T02:03:20.461Z,96.8504
2023-05-10T02:04:21.857Z,96.9463
2023-05-10T02:05:22.385Z,96.9596
2023-05-10T02:06:22.677Z,96.8099
2023-05-10T02:07:22.857Z,96.6249
2023-05-10T02:08:23.391Z,96.7857
2023-05-10T02:09:23.846Z,96.9729
2023-05-10T02:10:24.748Z,97.2170
2023-05-10T02:11:25.153Z,97.3883
2023-05-10T02:12:25.877Z,97.4994
2023-05-10T02:13:26.377Z,97.5264
2023-05-10T02:14:28.031Z,97.5493
2023-05-10T02:15:28.716Z,97.5880
2023-05-10T02:16:30.528Z,97.5165
2023-05-10T02:18:30.298Z,97.5528
2023-05-10T02:19:31.108Z,97.6654
2023-05-10T02:20:32.092Z,97.6270
2023-05-10T02:21:32.560Z,97.6422
2023-05-10T02:22:33.809Z,97.6303
2023-05-10T02:23:35.156Z,97.5908
2023-05-10T02:24:36.129Z,97.5428
2023-05-10T02:25:38.533Z,97.6444
2023-05-10T02:26:38.391Z,97.6613
2023-05-10T02:27:38.933Z,97.6628
2023-05-10T02:28:39.102Z,97.6172
2023-05-10T02:29:40.387Z,97.6722
2023-05-10T02:30:41.251Z,97.6603
2023-05-10T02:31:42.919Z,97.6205
2023-05-10T02:32:44.332Z,97.6626
2023-05-10T02:33:44.051Z,97.7640
2023-05-10T02:34:45.099Z,97.7995
2023-05-10T02:35:45.632Z,97.8231
2023-05-10T02:36:45.844Z,97.7526
2023-05-10T02:37:47.138Z,97.6656
2023-05-10T02:38:47.804Z,97.6490
2023-05-10T02:39:48.556Z,97.6431
2023-05-10T02:40:49.643Z,97.5777
2023-05-10T02:41:50.668Z,97.6616
2023-05-10T02:42:51.393Z,97.6036
2023-05-10T02:43:52.842Z,97.5206
2023-05-10T02:44:52.529Z,97.4758
2023-05-10T02:45:53.269Z,97.4854
2023-05-10T02:46:54.791Z,97.6153
2023-05-10T02:47:55.296Z,97.6872
2023-05-10T02:48:55.260Z,97.6161
2023-05-10T02:49:56.106Z,97.5248
2023-05-10T02:50:55.802Z,97.4101
2023-05-10T02:51:57.333Z,97.4842
2023-05-10T02:52:58.123Z,97.5419
2023-05-10T02:53:58.351Z,97.5895
2023-05-10T02:54:58.948Z,97.6807
2023-05-10T02:56:01.158Z,97.6777
2023-05-10T02:57:02.402Z,97.6441
2023-05-10T02:58:02.034Z,97.6596
2023-05-10T02:59:02.279Z,97.7188
2023-05-10T03:00:02.874Z,97.7481
2023-05-10T03:01:04.801Z,97.7948
2023-05-10T03:02:05.732Z,97.8188
2023-05-10T03:03:05.759Z,97.8342
2023-05-10T03:04:06.632Z,97.8114
2023-05-10T03:05:06.877Z,97.8334
2023-05-10T03:06:07.722Z,97.9146
2023-05-10T03:07:08.229Z,97.8777
2023-05-10T03:08:08.697Z,97.8584
2023-05-10T03:09:11.273Z,97.8209
2023-05-10T03:10:10.181Z,97.8741
2023-05-10T03:11:10.338Z,97.9185
2023-05-10T03:12:12.077Z,97.9110
2023-05-10T03:13:12.847Z,97.9541
2023-05-10T03:14:14.508Z,97.9850
2023-05-10T03:16:44.925Z,98.0336
2023-05-10T03:17:43.684Z,97.9981
2023-05-10T03:18:43.837Z,97.8710
2023-05-10T03:19:44.668Z,97.7436
2023-05-10T03:20:45.096Z,97.7765
2023-05-10T03:21:45.489Z,97.7880
2023-05-10T03:22:46.056Z,97.7596
2023-05-10T03:23:46.940Z,97.6306
2023-05-10T03:24:47.830Z,97.6558
2023-05-10T03:25:48.448Z,97.7833
2023-05-10T03:26:48.533Z,97.8062
2023-05-10T03:27:49.665Z,97.7893
2023-05-10T03:28:50.631Z,97.7539
2023-05-10T03:29:51.033Z,97.7196
2023-05-10T03:30:51.668Z,97.7457
2023-05-10T03:31:52.248Z,97.7659
2023-05-10T03:32:52.645Z,97.7376
2023-05-10T03:33:53.239Z,97.7447
2023-05-10T03:34:55.671Z,97.7796
2023-05-10T03:37:57.499Z,98.0583
2023-05-10T03:38:58.375Z,97.9850
2023-05-10T03:39:57.353Z,97.9307
2023-05-10T03:40:58.849Z,97.9041
2023-05-10T03:41:58.549Z,97.9658
2023-05-10T03:42:59.037Z,98.0178
2023-05-10T03:44:00.057Z,98.0611
2023-05-10T03:44:59.880Z,98.1440
2023-05-10T03:46:00.397Z,98.2126
2023-05-10T03:47:02.272Z,98.2409
2023-05-10T03:48:01.997Z,98.2323
2023-05-10T03:49:03.292Z,98.2456
2023-05-10T03:50:02.685Z,98.2583
2023-05-10T03:51:03.871Z,98.1955
2023-05-10T03:52:05.489Z,98.2064
2023-05-10T03:54:06.133Z,98.2992
2023-05-10T03:55:05.980Z,98.3177
2023-05-10T03:56:06.732Z,98.3398
2023-05-10T03:57:07.322Z,98.3390
2023-05-10T03:58:07.583Z,98.3238
2023-05-10T03:59:07.827Z,98.3505
2023-05-10T04:00:11.265Z,98.3746
2023-05-10T04:01:09.735Z,98.4219
2023-05-10T04:02:10.601Z,98.4776
2023-05-10T04:03:11.044Z,98.5089
2023-05-10T04:04:11.820Z,98.5342
2023-05-10T04:09:14.869Z,98.5414
2023-05-10T04:10:16.026Z,98.5225
2023-05-10T04:11:16.307Z,98.5002
2023-05-10T04:12:16.359Z,98.4822
2023-05-10T04:13:18.002Z,98.4585
2023-05-10T04:14:18.391Z,98.3402
2023-05-10T04:15:19.163Z,98.3117
2023-05-10T04:16:19.287Z,98.1580
2023-05-10T04:17:21.724Z,97.9977
2023-05-10T04:18:23.011Z,97.8948
2023-05-10T04:19:23.700Z,97.8272
2023-05-10T04:20:24.429Z,97.8278
2023-05-10T04:21:25.294Z,97.8508
2023-05-10T04:22:26.248Z,97.8654
2023-05-10T04:23:27.593Z,97.8361
2023-05-10T04:24:29.191Z,97.7679
2023-05-10T04:25:30.322Z,97.6797
2023-05-10T04:26:30.880Z,97.6272
2023-05-10T04:27:31.761Z,97.7215
2023-05-10T04:28:31.925Z,97.6095
2023-05-10T04:29:32.397Z,97.5093
2023-05-10T04:30:32.758Z,97.4365
2023-05-10T04:34:36.517Z,97.5332
2023-05-10T04:35:38.505Z,97.5264
2023-05-10T04:39:42.492Z,97.5037
2023-05-10T04:40:42.161Z,97.4221
2023-05-10T04:41:42.457Z,97.3611
2023-05-10T04:42:42.589Z,97.3724
2023-05-10T04:43:43.617Z,97.2322
2023-05-10T04:44:44.716Z,97.0979
2023-05-10T04:50:48.962Z,96.5260
2023-05-10T04:51:49.544Z,96.6003
2023-05-10T04:52:49.943Z,96.5185
2023-05-10T04:54:05.254Z,96.3952
2023-05-10T04:54:56.409Z,95.9731
2023-05-10T04:55:57.881Z,95.9986
2023-05-10T04:57:00.066Z,96.0968
2023-05-10T04:58:02.162Z,96.0486
2023-05-10T04:59:03.558Z,96.0240
2023-05-10T05:00:04.315Z,96.0277
2023-05-10T05:01:05.317Z,96.1573
2023-05-10T05:02:06.431Z,96.2350
2023-05-10T05:03:08.843Z,96.2037
2023-05-10T05:04:10.486Z,95.9827
2023-05-10T05:05:11.255Z,96.0110
2023-05-10T05:06:13.472Z,96.1223
2023-05-10T05:07:14.877Z,96.1596
2023-05-10T05:08:15.793Z,96.3024
2023-05-10T05:09:16.527Z,96.4300
2023-05-10T05:10:18.295Z,96.3456
2023-05-10T05:11:18.508Z,95.9190
2023-05-10T05:12:19.313Z,95.7669
2023-05-10T05:13:19.835Z,95.7020
2023-05-10T05:14:19.939Z,95.5892
2023-05-10T05:15:20.125Z,95.0664
2023-05-10T05:16:20.983Z,95.2072
2023-05-10T05:22:26.648Z,95.3162
2023-05-10T05:23:28.080Z,95.4334
2023-05-10T05:24:28.396Z,95.4625
2023-05-10T05:25:28.814Z,95.2892
2023-05-10T05:26:29.355Z,95.4076
2023-05-10T05:27:31.189Z,95.5474
2023-05-10T05:28:32.294Z,95.6944
2023-05-10T05:29:33.667Z,95.9067
2023-05-10T05:30:35.144Z,96.1470
2023-05-10T05:31:36.732Z,96.1212
2023-05-10T05:32:38.512Z,96.0911
2023-05-10T05:33:39.234Z,95.9912
2023-05-10T05:34:39.962Z,96.1836
2023-05-10T05:35:41.301Z,96.0839
2023-05-10T05:36:42.615Z,96.0895
2023-05-10T05:37:42.998Z,96.1855
2023-05-10T05:38:43.528Z,96.0262
2023-05-10T05:39:44.226Z,95.8492
2023-05-10T05:40:44.918Z,96.0056
2023-05-10T05:41:44.954Z,96.0464
2023-05-10T05:42:45.666Z,95.7655
2023-05-10T05:43:45.845Z,95.3973
2023-05-10T05:44:50.651Z,95.5530
2023-05-10T05:45:48.114Z,95.7568
2023-05-10T05:48:48.071Z,95.3097
2023-05-10T05:49:52.451Z,95.1703
2023-05-10T05:50:51.053Z,95.1193
2023-05-10T05:51:53.457Z,95.1844
2023-05-10T05:53:54.102Z,95.1332
2023-05-10T05:54:54.345Z,94.9386
2023-05-10T05:55:54.710Z,94.6388
2023-05-10T05:56:57.660Z,94.5058
2023-05-10T05:59:58.490Z,94.8786
2023-05-10T06:03:59.862Z,94.6419
2023-05-10T06:04:59.890Z,94.4615
2023-05-10T06:06:01.208Z,94.3826
2023-05-10T06:07:03.154Z,94.2162
2023-05-10T06:08:04.708Z,94.3158
2023-05-10T06:09:05.324Z,94.7000
2023-05-10T06:10:05.618Z,94.6841
2023-05-10T06:11:05.820Z,94.6852
2023-05-10T06:12:07.959Z,94.3410
2023-05-10T06:13:10.445Z,94.6310
2023-05-10T06:14:11.361Z,94.7389
2023-05-10T06:15:13.759Z,94.8042
2023-05-10T06:16:15.070Z,94.8187
2023-05-10T06:17:16.239Z,94.6281
2023-05-10T06:18:16.908Z,94.5423
2023-05-10T06:19:20.693Z,94.6257
2023-05-10T06:21:18.842Z,94.5195
2023-05-10T06:22:19.240Z,94.4436
2023-05-10T06:23:20.768Z,93.3195
2023-05-10T06:24:21.131Z,92.5089
2023-05-10T06:25:22.332Z,91.7954
2023-05-10T06:26:23.969Z,92.2114
2023-05-10T06:27:24.882Z,92.5748
2023-05-10T06:28:26.544Z,92.5673
2023-05-10T06:29:27.191Z,92.7776
2023-05-10T06:32:27.596Z,91.1661
2023-05-10T06:33:28.261Z,89.9589
2023-05-10T06:34:29.548Z,89.5797
2023-05-10T06:35:30.650Z,89.7245
2023-05-10T06:36:31.384Z,89.7738
2023-05-10T06:37:31.960Z,90.2425
2023-05-10T06:38:32.556Z,89.8385
2023-05-10T06:39:33.198Z,90.6771
2023-05-10T06:40:33.695Z,89.7504
2023-05-10T06:41:34.286Z,89.9705
2023-05-10T06:42:34.963Z,90.1873
2023-05-10T06:43:35.530Z,90.7882
2023-05-10T06:44:35.976Z,91.2198
2023-05-10T06:45:37.094Z,91.3088
2023-05-10T06:46:37.682Z,91.5640
2023-05-10T06:47:40.678Z,91.6922
2023-05-10T06:48:41.321Z,91.4637
2023-05-10T06:49:41.669Z,91.7279
2023-05-10T06:50:42.333Z,91.8853
2023-05-10T06:51:43.041Z,91.8456
2023-05-10T06:52:44.054Z,92.3509
2023-05-10T06:53:44.706Z,92.7133
2023-05-10T06:54:45.127Z,92.3804
2023-05-10T06:55:46.232Z,91.8085
2023-05-10T06:56:47.092Z,91.9596
2023-05-10T06:57:47.339Z,91.0009
2023-05-10T06:58:48.092Z,91.4190
2023-05-10T06:59:49.064Z,91.6359
2023-05-10T07:00:49.862Z,91.5273
2023-05-10T07:01:50.295Z,91.7743
2023-05-10T07:02:51.285Z,91.6349
2023-05-10T07:03:52.153Z,91.9056
2023-05-10T07:04:53.070Z,91.8606
2023-05-10T07:05:54.015Z,91.9344
2023-05-10T07:06:54.191Z,91.5227
2023-05-10T07:07:55.404Z,91.7078
2023-05-10T07:08:55.844Z,91.7371
2023-05-10T07:09:56.384Z,91.8630
2023-05-10T07:10:57.095Z,91.8196
2023-05-10T07:11:58.081Z,91.1909
2023-05-10T07:12:58.727Z,90.9145
2023-05-10T07:13:59.006Z,90.3859
2023-05-10T07:14:59.473Z,90.2145
2023-05-10T07:16:00.723Z,90.0458
2023-05-10T07:17:01.696Z,90.1600
2023-05-10T07:18:02.464Z,90.3958
2023-05-10T07:19:03.327Z,90.1859
2023-05-10T07:20:04.341Z,90.5587
2023-05-10T07:21:04.957Z,90.8134
2023-05-10T07:22:05.761Z,91.0922
2023-05-10T07:23:06.518Z,90.2958
2023-05-10T07:24:06.849Z,89.8299
2023-05-10T07:25:07.270Z,89.9538
2023-05-10T07:26:07.869Z,89.7191
2023-05-10T07:27:08.612Z,89.9663
2023-05-10T07:28:09.253Z,89.9232
2023-05-10T07:29:09.640Z,89.6541
2023-05-10T07:30:10.261Z,89.3177
2023-05-10T07:31:11.191Z,89.1361
2023-05-10T07:32:12.138Z,89.5999
2023-05-10T07:33:13.006Z,89.5197
2023-05-10T07:34:13.610Z,89.1863
2023-05-10T07:35:14.394Z,89.6918
2023-05-10T07:36:15.094Z,89.3846
2023-05-10T07:37:15.659Z,89.4657
2023-05-10T07:38:16.264Z,89.8292
2023-05-10T07:39:26.593Z,89.4928
2023-05-10T07:40:21.288Z,89.1961
2023-05-10T07:41:21.635Z,89.0827
2023-05-10T07:42:21.786Z,89.2017
2023-05-10T07:43:22.639Z,89.5816
2023-05-10T07:44:23.788Z,89.9346
2023-05-10T07:45:24.152Z,90.3481
2023-05-10T07:46:24.532Z,90.2394
2023-05-10T07:47:25.056Z,90.4604
2023-05-10T07:48:25.731Z,89.7225
2023-05-10T07:49:26.727Z,88.9792
2023-05-10T07:50:27.902Z,89.4512
2023-05-10T07:51:29.120Z,89.3625
2023-05-10T07:52:30.277Z,89.2980
2023-05-10T07:53:31.379Z,89.9645
2023-05-10T07:54:31.919Z,89.8946
2023-05-10T07:55:32.907Z,89.5311
2023-05-10T07:56:33.515Z,88.7909
2023-05-10T07:57:33.701Z,88.7819
2023-05-10T07:58:34.825Z,88.3461
2023-05-10T07:59:35.091Z,87.5296
2023-05-10T08:00:35.837Z,87.0701
2023-05-10T08:01:36.404Z,87.3404
2023-05-10T08:02:37.698Z,86.4248
2023-05-10T08:03:38.044Z,86.2013
2023-05-10T08:04:39.323Z,86.5411
2023-05-10T08:05:39.157Z,86.5721
2023-05-10T08:06:39.779Z,86.5671
2023-05-10T08:07:40.831Z,86.7109
2023-05-10T08:08:41.555Z,86.5250
2023-05-10T08:09:42.224Z,85.9789
2023-05-10T08:10:42.820Z,86.1057
2023-05-10T08:11:44.062Z,86.2889
2023-05-10T08:12:44.679Z,86.0500
2023-05-10T08:13:45.156Z,86.3831
2023-05-10T08:14:46.211Z,86.1992
2023-05-10T08:15:46.852Z,86.1062
2023-05-10T08:16:47.909Z,85.6687
2023-05-10T08:17:48.405Z,85.5350
2023-05-10T08:18:48.553Z,85.9574
2023-05-10T08:19:48.548Z,86.2173
2023-05-10T08:20:49.588Z,86.3320
2023-05-10T08:21:50.768Z,86.3135
2023-05-10T08:22:51.955Z,86.3173
2023-05-10T08:23:51.569Z,85.3186
2023-05-10T08:24:52.211Z,85.3739
2023-05-10T08:25:53.380Z,85.2616
2023-05-10T08:26:53.738Z,85.7837
2023-05-10T08:27:54.193Z,86.0583
2023-05-10T08:28:54.718Z,84.4641
2023-05-10T08:29:54.874Z,84.1036
2023-05-10T08:30:55.202Z,84.8057
2023-05-10T08:31:56.217Z,84.3483
2023-05-10T08:32:56.830Z,84.1618
2023-05-10T08:33:57.718Z,83.4757
2023-05-10T08:34:58.470Z,84.3093
2023-05-10T08:35:58.245Z,83.8719
2023-05-10T08:36:58.684Z,84.0550
2023-05-10T08:37:58.867Z,83.6947
2023-05-10T08:38:59.327Z,82.2868
2023-05-10T08:39:59.528Z,81.5954
2023-05-10T08:41:00.434Z,81.8782
2023-05-10T08:42:00.839Z,81.9474
2023-05-10T08:43:01.700Z,82.6765
2023-05-10T08:44:02.405Z,82.4359
2023-05-10T08:45:03.359Z,82.9327
2023-05-10T08:46:03.972Z,82.2280
2023-05-10T08:47:04.082Z,81.7902
2023-05-10T08:48:04.981Z,81.3297
2023-05-10T08:49:05.806Z,82.1292
2023-05-10T08:50:06.396Z,81.9521
2023-05-10T08:51:07.163Z,81.0304
2023-05-10T08:52:07.958Z,80.8514
2023-05-10T08:53:08.332Z,80.8818
2023-05-10T08:54:08.946Z,81.5008
2023-05-10T08:55:09.600Z,81.5042
2023-05-10T08:56:10.308Z,81.5110
2023-05-10T08:57:11.386Z,80.7697
2023-05-10T08:58:12.133Z,80.1815
2023-05-10T08:59:12.839Z,80.4599
2023-05-10T09:00:13.602Z,79.8605
2023-05-10T09:01:14.201Z,79.8613
2023-05-10T09:02:16.619Z,79.8268
2023-05-10T09:03:15.394Z,80.7308
2023-05-10T09:04:16.173Z,80.1299
2023-05-10T09:05:16.690Z,79.5937
2023-05-10T09:06:16.977Z,79.9561
2023-05-10T09:07:17.545Z,79.8711
2023-05-10T09:08:18.016Z,79.1687
2023-05-10T09:09:18.780Z,79.5174
2023-05-10T09:10:19.361Z,79.8929
2023-05-10T09:11:19.960Z,79.6482
2023-05-10T09:12:20.477Z,80.1477
2023-05-10T09:13:21.427Z,80.5142
2023-05-10T09:14:22.120Z,79.9507
2023-05-10T09:15:22.780Z,79.7073
2023-05-10T09:16:22.877Z,80.0878
2023-05-10T09:17:23.826Z,80.4200
2023-05-10T09:18:27.300Z,80.4725
2023-05-10T09:19:24.861Z,80.3357
2023-05-10T09:20:24.867Z,80.2894
2023-05-10T09:21:25.291Z,80.2811
2023-05-10T09:22:26.011Z,80.0858
2023-05-10T09:23:26.484Z,80.0812
2023-05-10T09:24:27.377Z,80.4069
2023-05-10T09:25:28.051Z,81.1348
2023-05-10T09:26:28.829Z,81.6294
2023-05-10T09:27:29.318Z,81.3713
2023-05-10T09:28:30.057Z,81.5140
2023-05-10T09:29:30.315Z,80.7886
2023-05-10T09:30:31.183Z,81.1051
2023-05-10T09:31:32.461Z,81.1952
2023-05-10T09:32:33.063Z,81.8541
2023-05-10T09:33:33.847Z,81.3192
2023-05-10T09:34:34.522Z,80.4325
2023-05-10T09:35:34.841Z,79.6356
2023-05-10T09:36:35.358Z,79.3993
2023-05-10T09:37:36.236Z,79.3398
2023-05-10T09:38:36.747Z,79.0674
2023-05-10T09:39:37.186Z,78.8484
2023-05-10T09:40:37.803Z,79.3127
2023-05-10T09:41:38.388Z,79.8123
2023-05-10T09:42:39.007Z,80.5200
2023-05-10T09:43:39.390Z,81.0282
2023-05-10T09:44:40.074Z,81.5335
2023-05-10T09:45:41.066Z,80.9313
2023-05-10T09:46:42.085Z,80.2721
2023-05-10T09:47:42.539Z,81.0428
2023-05-10T09:48:43.322Z,80.2104
2023-05-10T09:49:43.828Z,78.6408
2023-05-10T09:50:44.522Z,78.7664
2023-05-10T09:51:45.255Z,79.0573
2023-05-10T09:52:45.935Z,79.6384
2023-05-10T09:53:46.222Z,80.2455
2023-05-10T09:54:46.807Z,80.2514
2023-05-10T09:55:47.423Z,80.3500
2023-05-10T09:56:47.536Z,80.6570
2023-05-10T09:57:48.631Z,80.2742
2023-05-10T09:58:49.112Z,79.2789
2023-05-10T09:59:49.597Z,78.7723
2023-05-10T10:00:50.463Z,78.9053
2023-05-10T10:01:51.734Z,78.9019
2023-05-10T10:02:52.350Z,78.2742
2023-05-10T10:03:53.226Z,78.8103
2023-05-10T10:04:54.014Z,78.3917
2023-05-10T10:05:54.291Z,78.5435
2023-05-10T10:06:55.036Z,76.9896
2023-05-10T10:07:55.524Z,77.4771
2023-05-10T10:08:58.462Z,78.2295
2023-05-10T10:09:59.674Z,78.4236
2023-05-10T10:11:00.169Z,78.0938
2023-05-10T10:12:00.715Z,77.8233
2023-05-10T10:13:01.218Z,77.0166
2023-05-10T10:14:01.683Z,77.7389
2023-05-10T10:15:02.224Z,76.0906
2023-05-10T10:16:02.358Z,77.0054
2023-05-10T10:17:09.100Z,75.4646
2023-05-10T10:18:09.215Z,75.8015
2023-05-10T10:19:09.098Z,75.6196
2023-05-10T10:20:11.987Z,75.8136
2023-05-10T10:21:09.615Z,75.8591
2023-05-10T10:22:10.251Z,75.5784
2023-05-10T10:23:10.867Z,74.7580
2023-05-10T10:24:11.213Z,74.8251
2023-05-10T10:25:11.738Z,74.0847
2023-05-10T10:26:12.886Z,74.8168
2023-05-10T10:27:13.415Z,75.2843
2023-05-10T10:28:13.844Z,73.5888
2023-05-10T10:29:14.443Z,73.5606
2023-05-10T10:30:15.065Z,72.6994
2023-05-10T10:31:15.618Z,72.6161
2023-05-10T10:32:16.382Z,73.0101
2023-05-10T10:33:27.708Z,73.0543
2023-05-10T10:34:18.724Z,73.8349
2023-05-10T10:35:19.165Z,72.0258
2023-05-10T10:36:19.771Z,72.2612
2023-05-10T10:37:20.440Z,72.2646
2023-05-10T10:38:20.849Z,71.2200
2023-05-10T10:39:21.399Z,70.4524
2023-05-10T10:40:21.953Z,70.4348
2023-05-10T10:41:22.582Z,70.7505
2023-05-10T10:42:22.940Z,70.6320
2023-05-10T10:43:23.532Z,70.0860
2023-05-10T10:44:24.124Z,70.6509
2023-05-10T10:45:24.722Z,71.0015
2023-05-10T10:46:26.139Z,70.7609
2023-05-10T10:47:27.366Z,72.5073
2023-05-10T10:48:27.419Z,71.6590
2023-05-10T10:49:28.454Z,71.1386
2023-05-10T10:50:29.266Z,69.7135
2023-05-10T10:51:30.376Z,70.7082
2023-05-10T10:52:31.598Z,70.4626
2023-05-10T10:53:32.013Z,70.8249
2023-05-10T10:54:32.162Z,70.2057
2023-05-10T10:55:32.754Z,70.8466
2023-05-10T10:56:35.210Z,70.2824
2023-05-10T10:57:34.445Z,70.1962
2023-05-10T10:58:35.450Z,70.2990
2023-05-10T10:59:36.559Z,71.3292
2023-05-10T11:00:37.852Z,69.4441
2023-05-10T11:01:38.784Z,69.3584
2023-05-10T11:02:39.135Z,70.2789
2023-05-10T11:03:39.430Z,70.5118
2023-05-10T11:04:40.509Z,70.5297
2023-05-10T11:05:40.529Z,70.3531
2023-05-10T11:06:41.715Z,70.1286
2023-05-10T11:07:42.799Z,70.4120
2023-05-10T11:08:43.795Z,69.5141
2023-05-10T11:09:44.887Z,70.3192
2023-05-10T11:10:46.104Z,70.1327
2023-05-10T11:11:47.063Z,70.6230
2023-05-10T11:12:48.192Z,70.7391
2023-05-10T11:13:50.842Z,70.5252
2023-05-10T11:14:50.193Z,70.4834
2023-05-10T11:15:51.258Z,70.4779
2023-05-10T11:16:51.369Z,70.8639
2023-05-10T11:17:52.596Z,71.0525
2023-05-10T11:18:52.650Z,70.8018
2023-05-10T11:19:52.962Z,71.5847
2023-05-10T11:20:53.249Z,71.2184
2023-05-10T11:21:54.594Z,72.0962
2023-05-10T11:22:55.533Z,72.2486
2023-05-10T11:23:56.646Z,71.6351
2023-05-10T11:24:57.178Z,72.4292
2023-05-10T11:25:58.375Z,71.6596
2023-05-10T11:26:59.435Z,73.2381
2023-05-10T11:28:00.637Z,72.3480
2023-05-10T11:29:01.627Z,72.8248
2023-05-10T11:30:05.100Z,71.9528
2023-05-10T11:31:05.313Z,70.9981
2023-05-10T11:32:05.474Z,69.8075
2023-05-10T11:33:06.621Z,69.9542
2023-05-10T11:34:06.693Z,69.6229
2023-05-10T11:35:07.771Z,69.3161
2023-05-10T11:36:08.819Z,68.8747
2023-05-10T11:37:10.164Z,68.6240
2023-05-10T11:38:11.112Z,69.2518
2023-05-10T11:39:12.289Z,69.5653
2023-05-10T11:40:13.548Z,69.6358
2023-05-10T11:41:13.517Z,69.6399
2023-05-10T11:42:14.297Z,68.4299
2023-05-10T11:43:14.314Z,68.3641
2023-05-10T11:44:15.320Z,68.7135
2023-05-10T11:45:16.378Z,68.7240
2023-05-10T11:46:16.411Z,67.2121
2023-05-10T11:47:16.981Z,68.1755
2023-05-10T11:48:18.035Z,68.2533
2023-05-10T11:49:19.124Z,67.8433
2023-05-10T11:50:20.391Z,67.8487
2023-05-10T11:51:21.488Z,68.2018
2023-05-10T11:52:21.716Z,67.8857
2023-05-10T11:53:24.811Z,67.1673
2023-05-10T11:54:22.977Z,66.3096
2023-05-10T11:55:23.975Z,66.6187
2023-05-10T11:56:25.202Z,67.2394
2023-05-10T11:57:25.258Z,67.1524
2023-05-10T11:58:26.445Z,67.0728
2023-05-10T11:59:27.399Z,66.5624
2023-05-10T12:00:27.800Z,65.6717
2023-05-10T12:01:28.761Z,66.2115
2023-05-10T12:02:28.861Z,66.4271
2023-05-10T12:03:30.167Z,66.7750
2023-05-10T12:04:31.017Z,66.3524
2023-05-10T12:05:31.828Z,66.1914
2023-05-10T12:06:31.786Z,65.6060
2023-05-10T12:07:32.945Z,65.6141
2023-05-10T12:08:33.026Z,65.2143
2023-05-10T12:09:43.088Z,64.1930
2023-05-10T12:10:34.306Z,63.2584
2023-05-10T12:11:35.446Z,63.0184
2023-05-10T12:12:36.670Z,63.8656
2023-05-10T12:13:37.897Z,64.3226
2023-05-10T12:14:39.074Z,62.9146
2023-05-10T12:15:40.250Z,62.9574
2023-05-10T12:16:41.851Z,64.2522
2023-05-10T12:17:43.514Z,64.7078
2023-05-10T12:18:43.921Z,63.9959
2023-05-10T12:19:44.608Z,64.3133
2023-05-10T12:20:45.088Z,65.4864
2023-05-10T12:21:46.294Z,65.3199
2023-05-10T12:22:47.470Z,66.4086
2023-05-10T12:23:48.429Z,67.4279
2023-05-10T12:24:49.581Z,67.1986
2023-05-10T12:25:49.618Z,69.0576
2023-05-10T12:26:50.902Z,72.5936
2023-05-10T12:27:52.042Z,75.0630
2023-05-10T12:28:52.038Z,75.7090
2023-05-10T12:29:52.056Z,76.1746
2023-05-10T12:30:53.225Z,76.3110
2023-05-10T12:31:53.403Z,77.2007
2023-05-10T12:32:53.777Z,76.3648
2023-05-10T12:33:55.113Z,75.9388
2023-05-10T12:34:56.031Z,75.9514
2023-05-10T12:35:57.295Z,76.4915
2023-05-10T12:36:58.441Z,76.1286
2023-05-10T12:37:58.461Z,75.8321
2023-05-10T12:38:59.518Z,75.6084
2023-05-10T12:40:00.834Z,76.4156
2023-05-10T12:41:01.026Z,76.8994
2023-05-10T12:42:01.969Z,77.3001
2023-05-10T12:43:02.188Z,77.3448
2023-05-10T12:44:02.412Z,77.5168
2023-05-10T12:45:03.584Z,78.1665
2023-05-10T12:46:04.948Z,78.2616
2023-05-10T12:47:05.035Z,78.4636
2023-05-10T12:48:06.060Z,78.5196
2023-05-10T12:49:11.718Z,79.3343
2023-05-10T12:50:11.879Z,79.7205
2023-05-10T12:51:12.955Z,79.5828
2023-05-10T12:52:14.121Z,78.9893
2023-05-10T12:53:15.290Z,78.5519
2023-05-10T12:54:15.379Z,79.1536
2023-05-10T12:55:16.485Z,79.4577
2023-05-10T12:56:17.702Z,79.8289
2023-05-10T12:57:18.890Z,79.6293
2023-05-10T12:58:35.068Z,79.6892
2023-05-10T12:59:23.778Z,79.2143
2023-05-10T13:00:23.653Z,79.3096
2023-05-10T13:01:23.943Z,78.7371
2023-05-10T13:02:24.050Z,78.5896
2023-05-10T13:03:24.213Z,78.9409
2023-05-10T13:04:25.298Z,78.8148